createdAt,value
2023-03-23T15:59:42.191Z,60.28
2023-03-23T16:01:44.146Z,60.53
2023-03-23T16:03:50.122Z,60.76
2023-03-23T16:05:53.534Z,61.06
2023-03-23T16:07:55.657Z,61.17
2023-03-23T16:09:57.270Z,61.23
2023-03-23T16:11:58.915Z,60.80
2023-03-23T16:14:01.029Z,61.81
2023-03-23T16:16:02.772Z,62.29
2023-03-23T16:18:04.409Z,61.17
2023-03-23T16:20:12.374Z,61.82
2023-03-23T16:22:17.172Z,62.02
2023-03-23T16:24:20.435Z,61.65
2023-03-23T16:26:22.315Z,61.66
2023-03-23T16:28:23.839Z,61.01
2023-03-23T16:30:28.896Z,61.76
2023-03-23T16:32:31.060Z,60.64
2023-03-23T16:34:32.710Z,60.84
2023-03-23T16:36:34.923Z,61.23
2023-03-23T16:38:49.928Z,61.40
2023-03-23T16:40:53.134Z,60.72
2023-03-23T16:42:55.177Z,60.45
2023-03-23T16:44:56.764Z,60.82
2023-03-23T16:46:58.926Z,61.19
2023-03-23T16:49:00.553Z,61.03
2023-03-23T16:51:02.132Z,60.98
2023-03-23T16:53:05.367Z,61.21
2023-03-23T16:55:10.495Z,61.93
2023-03-23T16:57:12.188Z,61.48
2023-03-23T16:59:14.721Z,62.00
2023-03-23T17:01:16.385Z,61.70
2023-03-23T17:03:19.216Z,62.16
2023-03-23T17:05:24.446Z,62.11
2023-03-23T17:07:26.767Z,62.42
2023-03-23T17:09:29.132Z,62.10
2023-03-23T17:11:32.533Z,62.43
2023-03-23T17:13:34.470Z,62.42
2023-03-23T17:15:37.584Z,62.45
2023-03-23T17:17:39.225Z,63.00
2023-03-23T17:19:40.858Z,63.29
2023-03-23T17:21:43.297Z,63.27
2023-03-23T17:23:44.897Z,63.78
2023-03-23T17:25:49.812Z,64.09
2023-03-23T17:27:53.412Z,64.28
2023-03-23T17:29:55.239Z,64.39
2023-03-23T17:31:56.882Z,64.26
2023-03-23T17:33:58.557Z,64.43
2023-03-23T17:36:00.431Z,64.81
2023-03-23T17:38:02.077Z,64.83
2023-03-23T17:40:05.053Z,64.77
2023-03-23T17:42:06.715Z,64.96
2023-03-23T17:44:09.934Z,65.27
2023-03-23T17:46:11.757Z,65.49
2023-03-23T17:48:14.004Z,65.64
2023-03-23T17:50:15.820Z,65.66
2023-03-23T17:52:17.635Z,65.93
2023-03-23T17:54:19.676Z,66.08
2023-03-23T17:56:21.366Z,66.41
2023-03-23T17:58:24.533Z,65.50
2023-03-23T18:00:27.502Z,66.20
2023-03-23T18:02:29.360Z,66.42
2023-03-23T18:04:31.112Z,66.97
2023-03-23T18:06:32.930Z,66.90
2023-03-23T18:08:35.460Z,66.81
2023-03-23T18:10:39.129Z,67.05
2023-03-23T18:12:41.692Z,66.83
2023-03-23T18:14:43.514Z,67.09
2023-03-23T18:16:46.700Z,67.35
2023-03-23T18:18:49.242Z,66.36
2023-03-23T18:20:55.078Z,66.11
2023-03-23T18:22:56.750Z,66.14
2023-03-23T18:24:58.376Z,66.00
2023-03-23T18:26:59.983Z,65.78
2023-03-23T18:29:01.831Z,65.71
2023-03-23T18:31:04.967Z,65.75
2023-03-23T18:33:07.944Z,65.49
2023-03-23T18:35:10.959Z,65.26
2023-03-23T18:37:13.137Z,65.50
2023-03-23T18:39:14.645Z,64.79
2023-03-23T18:41:18.142Z,64.97
2023-03-23T18:43:20.763Z,64.79
2023-03-23T18:45:22.289Z,64.88
2023-03-23T18:47:25.020Z,64.62
2023-03-23T18:49:28.410Z,65.03
2023-03-23T18:51:31.406Z,65.13
2023-03-23T18:53:32.954Z,64.92
2023-03-23T18:55:34.796Z,65.52
2023-03-23T18:57:38.922Z,65.19
2023-03-23T18:59:40.811Z,65.29
2023-03-23T19:01:42.707Z,65.72
2023-03-23T19:03:45.329Z,66.15
2023-03-23T19:05:48.683Z,66.36
2023-03-23T19:07:50.563Z,66.10
2023-03-23T19:09:52.555Z,66.44
2023-03-23T19:11:54.174Z,66.36
2023-03-23T19:14:02.331Z,66.67
2023-03-23T19:16:05.765Z,66.31
2023-03-23T19:18:07.612Z,66.54
2023-03-23T19:22:14.350Z,66.62
2023-03-23T19:24:16.170Z,66.62
2023-03-23T19:26:23.372Z,66.93
2023-03-23T19:30:50.789Z,66.77
2023-03-23T19:32:53.377Z,67.20
2023-03-23T19:34:55.305Z,67.08
2023-03-23T19:37:05.528Z,67.08
2023-03-23T19:39:11.324Z,67.29
2023-03-23T19:41:13.262Z,67.47
2023-03-23T19:43:14.868Z,67.25
2023-03-23T19:45:16.715Z,67.59
2023-03-23T19:47:18.789Z,67.51
2023-03-23T19:49:20.518Z,67.39
2023-03-23T19:51:22.993Z,67.46
2023-03-23T19:53:26.567Z,67.64
2023-03-23T19:55:30.881Z,68.03
2023-03-23T19:57:32.550Z,67.82
2023-03-23T19:59:34.804Z,68.21
2023-03-23T20:01:36.607Z,68.49
2023-03-23T20:03:38.538Z,68.20
2023-03-23T20:05:40.863Z,68.32
2023-03-23T20:07:47.832Z,68.71
2023-03-23T20:09:52.025Z,68.38
2023-03-23T20:11:55.637Z,68.81
2023-03-23T20:13:57.990Z,68.83
2023-03-23T20:16:00.883Z,69.21
2023-03-23T20:18:03.251Z,69.23
2023-03-23T20:20:06.422Z,69.04
2023-03-23T20:22:08.490Z,69.51
2023-03-23T20:24:12.449Z,69.43
2023-03-23T20:26:17.066Z,69.91
2023-03-23T20:28:20.232Z,69.92
2023-03-23T20:30:21.826Z,70.03
2023-03-23T20:32:24.320Z,69.90
2023-03-23T20:34:26.336Z,70.12
2023-03-23T20:36:30.170Z,70.36
2023-03-23T20:38:32.095Z,70.55
2023-03-23T20:40:33.955Z,70.52
2023-03-23T20:42:35.621Z,70.83
2023-03-23T20:44:38.954Z,70.91
2023-03-23T20:46:40.544Z,71.06
2023-03-23T20:48:42.228Z,70.85
2023-03-23T20:50:43.871Z,71.00
2023-03-23T20:52:45.818Z,70.90
2023-03-23T20:54:47.662Z,71.03
2023-03-23T20:56:49.869Z,71.48
2023-03-23T20:58:51.888Z,71.78
2023-03-23T21:00:57.438Z,71.70
2023-03-23T21:02:59.256Z,71.81
2023-03-23T21:05:00.889Z,71.68
2023-03-23T21:07:03.217Z,71.82
2023-03-23T21:09:05.002Z,71.80
2023-03-23T21:11:10.223Z,72.14
2023-03-23T21:13:12.574Z,72.42
2023-03-23T21:15:14.554Z,72.41
2023-03-23T21:17:18.024Z,73.06
2023-03-23T21:19:19.750Z,72.44
2023-03-23T21:21:22.182Z,72.75
2023-03-23T21:23:24.189Z,72.63
2023-03-23T21:25:34.146Z,73.30
2023-03-23T21:27:38.005Z,73.50
2023-03-23T21:29:40.105Z,73.18
2023-03-23T21:31:41.861Z,72.96
2023-03-23T21:33:46.059Z,73.26
2023-03-23T21:35:47.900Z,73.03
2023-03-23T21:37:49.700Z,73.52
2023-03-23T21:39:51.542Z,73.70
2023-03-23T21:41:53.310Z,74.20
2023-03-23T21:43:54.899Z,73.45
2023-03-23T21:45:58.743Z,73.81
2023-03-23T21:48:00.343Z,73.85
2023-03-23T21:50:04.437Z,73.86
2023-03-23T21:52:06.040Z,74.72
2023-03-23T21:54:07.687Z,75.13
2023-03-23T21:56:11.354Z,74.50
2023-03-23T21:58:13.089Z,75.01
2023-03-23T22:00:15.249Z,74.96
2023-03-23T22:02:17.024Z,74.63
2023-03-23T22:04:18.834Z,74.81
2023-03-23T22:06:24.282Z,75.18
2023-03-23T22:08:27.788Z,75.34
2023-03-23T22:10:29.818Z,74.73
2023-03-23T22:12:31.619Z,75.15
2023-03-23T22:14:33.525Z,75.26
2023-03-23T22:16:35.625Z,75.30
2023-03-23T22:18:37.829Z,74.97
2023-03-23T22:20:40.574Z,75.40
2023-03-23T22:22:43.708Z,75.15
2023-03-23T22:24:45.587Z,75.59
2023-03-23T22:26:47.399Z,75.23
2023-03-23T22:28:50.407Z,75.40
2023-03-23T22:30:53.675Z,75.41
2023-03-23T22:32:55.504Z,75.40
2023-03-23T22:34:57.819Z,75.71
2023-03-23T22:36:59.734Z,75.59
2023-03-23T22:39:03.389Z,75.55
2023-03-23T22:41:07.496Z,75.70
2023-03-23T22:43:09.641Z,75.35
2023-03-23T22:45:12.227Z,75.24
2023-03-23T22:47:14.124Z,75.59
2023-03-23T22:49:16.084Z,75.53
2023-03-23T22:51:19.177Z,75.61
2023-03-23T22:53:21.691Z,75.66
2023-03-23T22:55:25.099Z,76.10
2023-03-23T22:57:26.760Z,75.77
2023-03-23T22:59:28.396Z,75.90
2023-03-23T23:01:30.090Z,75.91
2023-03-23T23:03:32.413Z,76.24
2023-03-23T23:05:34.674Z,75.99
2023-03-23T23:07:36.884Z,75.79
2023-03-23T23:09:38.490Z,76.11
2023-03-23T23:11:41.680Z,76.52
2023-03-23T23:13:43.973Z,75.69
2023-03-23T23:15:48.222Z,76.12
2023-03-23T23:17:50.383Z,75.98
2023-03-23T23:19:52.086Z,75.65
2023-03-23T23:21:54.240Z,76.46
2023-03-23T23:23:56.105Z,76.33
2023-03-23T23:25:58.174Z,76.23
2023-03-23T23:28:03.503Z,75.89
2023-03-23T23:30:06.081Z,76.46
2023-03-23T23:32:07.738Z,76.60
2023-03-23T23:34:13.707Z,76.55
2023-03-23T23:36:15.440Z,76.40
2023-03-23T23:38:17.223Z,76.55
2023-03-23T23:40:20.230Z,76.58
2023-03-23T23:42:22.776Z,76.26
2023-03-23T23:44:26.445Z,75.96
2023-03-23T23:46:28.978Z,76.13
2023-03-23T23:48:31.114Z,76.54
2023-03-23T23:50:33.663Z,76.30
2023-03-23T23:52:37.338Z,75.89
2023-03-23T23:54:39.363Z,76.47
2023-03-23T23:56:41.089Z,76.06
2023-03-23T23:58:42.968Z,76.07
